createdAt,value
2018-11-21T00:01:21.399Z,3.50
2018-11-21T00:04:02.845Z,3.50
2018-11-21T00:06:44.257Z,3.50
2018-11-21T00:09:25.640Z,3.40
2018-11-21T00:12:06.728Z,3.40
2018-11-21T00:14:48.302Z,3.40
2018-11-21T00:17:29.702Z,3.40
2018-11-21T00:20:11.383Z,3.30
2018-11-21T00:22:52.555Z,3.40
2018-11-21T00:25:34.479Z,3.40
2018-11-21T00:28:15.658Z,3.40
2018-11-21T00:30:57.610Z,3.40
2018-11-21T00:33:38.848Z,3.40
2018-11-21T00:36:20.718Z,3.40
2018-11-21T00:39:01.986Z,3.30
2018-11-21T00:41:43.232Z,3.30
2018-11-21T00:44:23.969Z,3.30
2018-11-21T00:47:05.562Z,3.30
2018-11-21T00:49:47.405Z,3.30
2018-11-21T00:52:29.685Z,3.30
2018-11-21T00:55:10.613Z,3.30
2018-11-21T00:57:51.570Z,3.20
2018-11-21T01:00:33.341Z,3.20
2018-11-21T01:03:14.504Z,3.20
2018-11-21T01:05:56.451Z,3.20
2018-11-21T01:08:38.124Z,3.20
2018-11-21T01:11:19.572Z,3.20
2018-11-21T01:14:01.114Z,3.20
2018-11-21T01:16:42.270Z,3.20
2018-11-21T01:19:23.721Z,3.20
2018-11-21T01:22:05.065Z,3.20
2018-11-21T01:24:46.522Z,3.20
2018-11-21T01:27:27.728Z,3.20
2018-11-21T01:30:09.756Z,3.20
2018-11-21T01:32:50.833Z,3.30
2018-11-21T01:35:32.158Z,3.30
2018-11-21T01:38:13.169Z,3.20
2018-11-21T01:40:55.104Z,3.20
2018-11-21T01:43:36.369Z,3.20
2018-11-21T01:46:17.919Z,3.30
2018-11-21T01:48:59.550Z,3.30
2018-11-21T01:51:40.896Z,3.20
2018-11-21T01:54:22.859Z,3.20
2018-11-21T01:57:04.643Z,3.20
2018-11-21T02:00:24.595Z,3.20
2018-11-21T02:03:05.557Z,3.20
2018-11-21T02:05:47.503Z,3.20
2018-11-21T02:08:28.092Z,3.20
2018-11-21T02:11:09.654Z,3.20
2018-11-21T02:13:50.573Z,3.20
2018-11-21T02:16:31.681Z,3.10
2018-11-21T02:19:12.470Z,3.10
2018-11-21T02:21:53.407Z,3.10
2018-11-21T02:24:33.883Z,3.10
2018-11-21T02:27:14.650Z,3.00
2018-11-21T02:29:55.907Z,2.90
2018-11-21T02:32:37.281Z,2.90
2018-11-21T02:35:17.639Z,2.90
2018-11-21T02:37:58.388Z,2.90
2018-11-21T02:40:39.611Z,2.90
2018-11-21T02:43:20.853Z,2.80
2018-11-21T02:46:02.323Z,2.90
2018-11-21T02:48:43.066Z,2.80
2018-11-21T02:51:23.806Z,2.80
2018-11-21T02:54:05.236Z,2.80
2018-11-21T02:56:45.974Z,2.80
2018-11-21T02:59:26.986Z,2.70
2018-11-21T03:02:08.186Z,2.70
2018-11-21T03:04:49.737Z,2.70
2018-11-21T03:07:30.919Z,2.70
2018-11-21T03:10:12.039Z,2.70
2018-11-21T03:12:53.416Z,2.70
2018-11-21T03:15:34.607Z,2.70
2018-11-21T03:18:15.048Z,2.70
2018-11-21T03:20:56.493Z,2.70
2018-11-21T03:23:37.376Z,2.70
2018-11-21T03:26:18.113Z,2.70
2018-11-21T03:28:59.287Z,2.60
2018-11-21T03:31:40.004Z,2.60
2018-11-21T03:34:21.789Z,2.60
2018-11-21T03:37:02.802Z,2.60
2018-11-21T03:39:44.023Z,2.70
2018-11-21T03:42:25.877Z,2.70
2018-11-21T03:45:06.612Z,2.70
2018-11-21T03:47:47.691Z,2.70
2018-11-21T03:50:31.951Z,2.70
2018-11-21T03:53:13.499Z,2.70
2018-11-21T03:55:54.429Z,2.70
2018-11-21T03:58:35.566Z,2.70
2018-11-21T04:01:16.510Z,2.70
2018-11-21T04:03:57.461Z,2.70
2018-11-21T04:06:37.884Z,2.70
2018-11-21T04:09:19.097Z,2.70
2018-11-21T04:14:43.089Z,2.60
2018-11-21T04:17:24.601Z,2.60
2018-11-21T04:20:05.203Z,2.60
2018-11-21T04:22:46.459Z,2.60
2018-11-21T04:25:27.861Z,2.60
2018-11-21T04:28:09.054Z,2.60
2018-11-21T04:30:49.852Z,2.50
2018-11-21T04:33:30.429Z,2.60
2018-11-21T04:36:12.045Z,2.60
2018-11-21T04:38:52.643Z,2.70
2018-11-21T04:41:33.591Z,2.60
2018-11-21T04:44:14.051Z,2.60
2018-11-21T04:46:54.772Z,2.60
2018-11-21T04:49:36.008Z,2.50
2018-11-21T04:52:16.663Z,2.40
2018-11-21T04:54:57.270Z,2.30
2018-11-21T04:57:38.599Z,2.20
2018-11-21T05:00:19.952Z,2.20
2018-11-21T05:03:00.871Z,2.20
2018-11-21T05:05:41.526Z,2.00
2018-11-21T05:08:22.395Z,2.10
2018-11-21T05:11:03.158Z,2.10
2018-11-21T05:13:44.112Z,2.00
2018-11-21T05:16:24.617Z,1.90
2018-11-21T05:19:06.146Z,1.90
2018-11-21T05:21:47.471Z,1.80
2018-11-21T05:24:28.765Z,1.80
2018-11-21T05:27:09.584Z,1.60
2018-11-21T05:29:51.442Z,1.50
2018-11-21T05:32:32.180Z,1.40
2018-11-21T05:35:13.049Z,1.40
2018-11-21T05:37:54.434Z,1.30
2018-11-21T05:40:35.646Z,1.30
2018-11-21T05:43:17.026Z,1.30
2018-11-21T05:45:58.323Z,1.30
2018-11-21T05:48:39.663Z,1.20
2018-11-21T05:51:21.134Z,1.20
2018-11-21T05:56:56.969Z,1.10
2018-11-21T06:05:46.317Z,1.00
2018-11-21T06:17:31.061Z,0.90
2018-11-21T06:20:19.232Z,0.80
2018-11-21T06:23:07.342Z,0.70
2018-11-21T06:25:55.858Z,0.80
2018-11-21T06:31:51.367Z,0.80
2018-11-21T06:40:41.311Z,0.80
2018-11-21T06:46:22.970Z,0.80
2018-11-21T06:49:11.328Z,0.70
2018-11-21T06:55:07.338Z,0.60
2018-11-21T06:57:55.570Z,0.60
2018-11-21T07:00:43.684Z,0.60
2018-11-21T07:03:32.879Z,0.70
2018-11-21T07:18:10.289Z,0.60
2018-11-21T07:26:46.325Z,0.70
2018-11-21T07:32:29.351Z,0.80
2018-11-21T07:35:18.296Z,1.00
2018-11-21T07:38:06.178Z,1.10
2018-11-21T07:46:56.471Z,1.20
2018-11-21T07:49:45.167Z,1.30
2018-11-21T07:55:26.934Z,1.50
2018-11-21T07:58:17.140Z,1.70
2018-11-21T08:01:43.483Z,1.80
2018-11-21T08:04:50.679Z,1.90
2018-11-21T08:07:57.647Z,2.00
2018-11-21T08:11:04.588Z,2.00
2018-11-21T08:14:11.992Z,2.00
2018-11-21T08:17:21.158Z,1.90
2018-11-21T08:20:27.127Z,1.90
2018-11-21T08:23:34.087Z,1.90
2018-11-21T08:26:41.333Z,1.80
2018-11-21T08:32:25.930Z,1.70
2018-11-21T08:35:12.707Z,1.60
2018-11-21T08:38:00.968Z,1.60
2018-11-21T08:43:43.096Z,1.90
2018-11-21T08:46:31.317Z,2.20
2018-11-21T08:49:20.582Z,2.60
2018-11-21T08:52:08.749Z,3.10
2018-11-21T08:54:56.921Z,3.50
2018-11-21T08:57:45.411Z,3.90
2018-11-21T09:00:34.233Z,4.20
2018-11-21T09:03:22.124Z,4.40
2018-11-21T09:12:15.327Z,4.10
2018-11-21T09:18:07.076Z,3.70
2018-11-21T09:24:02.832Z,4.00
2018-11-21T09:26:50.735Z,4.30
2018-11-21T09:29:38.612Z,4.70
2018-11-21T09:32:26.831Z,5.10
2018-11-21T09:35:16.055Z,5.40
2018-11-21T09:38:03.939Z,5.70
2018-11-21T09:40:51.870Z,5.60
2018-11-21T09:43:40.080Z,5.50
2018-11-21T09:46:27.957Z,5.70
2018-11-21T09:49:15.863Z,5.70
2018-11-21T09:52:04.132Z,5.50
2018-11-21T09:58:00.566Z,5.30
2018-11-21T10:01:07.781Z,5.40
2018-11-21T10:03:58.843Z,5.70
2018-11-21T10:21:37.884Z,6.40
2018-11-21T10:24:26.018Z,6.30
2018-11-21T10:27:13.884Z,6.00
2018-11-21T10:30:02.399Z,5.90
2018-11-21T10:32:50.620Z,5.90
2018-11-21T10:35:38.775Z,6.00
2018-11-21T10:44:14.395Z,6.70
2018-11-21T10:50:10.641Z,7.60
2018-11-21T10:52:58.863Z,7.90
2018-11-21T10:58:41.435Z,8.30
2018-11-21T11:01:48.395Z,8.40
2018-11-21T11:04:55.345Z,9.10
2018-11-21T11:08:02.605Z,9.00
2018-11-21T11:10:58.594Z,8.70
2018-11-21T11:14:05.595Z,8.50
2018-11-21T11:17:12.576Z,7.90
2018-11-21T11:20:19.600Z,7.60
2018-11-21T11:23:26.979Z,7.40
2018-11-21T11:26:33.947Z,7.10
2018-11-21T11:29:41.274Z,6.70
2018-11-21T11:32:48.579Z,6.50
2018-11-21T11:35:55.907Z,6.40
2018-11-21T11:39:02.961Z,6.20
2018-11-21T11:42:09.925Z,6.10
2018-11-21T11:45:16.862Z,6.10
2018-11-21T11:48:23.869Z,6.00
2018-11-21T11:51:30.845Z,6.20
2018-11-21T11:54:37.803Z,6.10
2018-11-21T11:57:44.758Z,6.10
2018-11-21T12:00:51.202Z,6.10
2018-11-21T12:03:58.445Z,6.10
2018-11-21T12:07:06.369Z,6.00
2018-11-21T12:10:13.608Z,5.70
2018-11-21T12:13:21.439Z,5.70
2018-11-21T12:16:28.787Z,5.60
2018-11-21T12:19:36.070Z,5.50
2018-11-21T12:22:43.108Z,5.40
2018-11-21T12:25:50.232Z,5.40
2018-11-21T12:28:57.522Z,5.40
2018-11-21T12:32:04.508Z,5.30
2018-11-21T12:35:11.587Z,5.30
2018-11-21T12:38:18.870Z,5.30
2018-11-21T12:41:25.712Z,5.30
2018-11-21T12:44:32.704Z,5.20
2018-11-21T12:47:40.477Z,5.10
2018-11-21T12:50:47.488Z,5.10
2018-11-21T12:53:54.691Z,5.10
2018-11-21T12:57:01.933Z,5.20
2018-11-21T13:00:08.872Z,5.50
2018-11-21T13:03:15.831Z,6.00
2018-11-21T13:06:22.891Z,6.60
2018-11-21T13:09:30.740Z,7.20
2018-11-21T13:12:37.803Z,7.40
2018-11-21T13:15:44.834Z,7.50
2018-11-21T13:18:52.190Z,7.60
2018-11-21T13:21:59.234Z,7.20
2018-11-21T13:25:06.454Z,6.80
2018-11-21T13:28:13.456Z,6.50
2018-11-21T13:31:16.543Z,6.20
2018-11-21T13:37:28.770Z,5.90
2018-11-21T13:40:35.990Z,5.80
2018-11-21T13:43:43.426Z,5.70
2018-11-21T13:46:50.394Z,5.50
2018-11-21T13:49:57.383Z,5.40
2018-11-21T13:53:04.682Z,5.30
2018-11-21T13:55:52.952Z,5.20
2018-11-21T13:58:41.104Z,5.30
2018-11-21T14:01:29.396Z,5.10
2018-11-21T14:04:17.752Z,5.10
2018-11-21T14:07:06.065Z,5.10
2018-11-21T14:09:54.217Z,5.10
2018-11-21T14:12:42.143Z,5.10
2018-11-21T14:15:30.356Z,5.00
2018-11-21T14:24:06.225Z,5.00
2018-11-21T14:26:54.156Z,5.00
2018-11-21T14:29:42.426Z,4.90
2018-11-21T14:32:30.370Z,4.80
2018-11-21T14:38:12.765Z,4.70
2018-11-21T14:43:54.681Z,4.50
2018-11-21T14:49:36.953Z,4.40
2018-11-21T14:52:25.188Z,4.30
2018-11-21T14:58:21.979Z,4.10
2018-11-21T15:01:10.175Z,4.10
2018-11-21T15:03:58.309Z,4.00
2018-11-21T15:24:10.069Z,3.50
2018-11-21T15:29:33.481Z,3.40
2018-11-21T15:35:16.160Z,3.40
2018-11-21T15:40:58.769Z,3.20
2018-11-21T15:43:47.099Z,3.20
2018-11-21T15:55:31.744Z,3.10
2018-11-21T15:58:19.690Z,3.10
2018-11-21T16:07:09.745Z,3.00
2018-11-21T16:09:57.938Z,3.00
2018-11-21T16:15:54.945Z,2.90
2018-11-21T16:21:37.476Z,2.80
2018-11-21T16:24:25.992Z,2.70
2018-11-21T16:27:14.386Z,2.70
2018-11-21T16:30:02.523Z,2.60
2018-11-21T16:32:43.418Z,2.60
2018-11-21T16:35:24.580Z,2.60
2018-11-21T16:38:05.133Z,2.50
2018-11-21T16:40:48.365Z,2.50
2018-11-21T16:43:29.141Z,2.40
2018-11-21T16:46:09.461Z,2.40
2018-11-21T16:48:51.077Z,2.40
2018-11-21T16:51:31.989Z,2.30
2018-11-21T16:54:13.570Z,2.40
2018-11-21T16:56:54.637Z,2.30
2018-11-21T16:59:36.003Z,2.20
2018-11-21T17:02:16.968Z,2.30
2018-11-21T17:04:58.263Z,2.20
2018-11-21T17:07:39.810Z,2.20
2018-11-21T17:10:22.051Z,2.20
2018-11-21T17:13:02.680Z,2.20
2018-11-21T17:15:44.093Z,2.10
2018-11-21T17:18:25.572Z,2.20
2018-11-21T17:21:07.074Z,2.20
2018-11-21T17:23:48.366Z,2.20
2018-11-21T17:26:29.471Z,2.30
2018-11-21T17:29:10.167Z,2.30
2018-11-21T17:31:50.938Z,2.30
2018-11-21T17:34:32.272Z,2.30
2018-11-21T17:37:13.075Z,2.30
2018-11-21T17:39:54.098Z,2.50
2018-11-21T17:42:35.470Z,2.50
2018-11-21T17:45:17.478Z,2.50
2018-11-21T17:47:58.372Z,2.60
2018-11-21T17:50:39.699Z,2.60
2018-11-21T17:53:20.563Z,2.60
2018-11-21T17:56:01.336Z,2.60
2018-11-21T17:58:42.578Z,2.70
2018-11-21T18:01:23.555Z,2.70
2018-11-21T18:04:04.155Z,2.70
2018-11-21T18:06:45.719Z,2.80
2018-11-21T18:09:26.694Z,2.80
2018-11-21T18:12:07.419Z,2.80
2018-11-21T18:14:48.161Z,2.80
2018-11-21T18:17:29.214Z,2.80
2018-11-21T18:20:11.358Z,2.80
2018-11-21T18:22:53.248Z,2.90
2018-11-21T18:25:35.913Z,2.80
2018-11-21T18:28:17.314Z,2.80
2018-11-21T18:30:57.982Z,2.90
2018-11-21T18:33:38.930Z,2.90
2018-11-21T18:36:19.604Z,2.80
2018-11-21T18:39:00.671Z,2.90
2018-11-21T18:41:42.261Z,2.90
2018-11-21T18:44:23.531Z,2.90
2018-11-21T18:47:04.743Z,2.90
2018-11-21T18:49:46.796Z,2.90
2018-11-21T18:52:28.563Z,2.90
2018-11-21T18:55:09.765Z,2.90
2018-11-21T18:57:51.956Z,2.90
2018-11-21T19:00:32.505Z,3.00
2018-11-21T19:03:13.064Z,3.00
2018-11-21T19:05:54.088Z,3.00
2018-11-21T19:08:34.952Z,3.00
2018-11-21T19:11:16.549Z,2.90
2018-11-21T19:13:58.064Z,3.00
2018-11-21T19:16:38.972Z,2.90
2018-11-21T19:19:21.117Z,3.00
2018-11-21T19:22:02.156Z,3.00
2018-11-21T19:24:43.612Z,3.00
2018-11-21T19:27:25.057Z,3.10
2018-11-21T19:30:05.787Z,3.10
2018-11-21T19:32:46.281Z,3.00
2018-11-21T19:35:27.969Z,3.10
2018-11-21T19:38:09.078Z,3.10
2018-11-21T19:40:49.750Z,3.20
2018-11-21T19:43:31.224Z,3.10
2018-11-21T19:46:12.086Z,3.10
2018-11-21T19:48:53.254Z,3.20
2018-11-21T19:51:34.504Z,3.20
2018-11-21T19:54:15.974Z,3.20
2018-11-21T19:56:59.494Z,3.20
2018-11-21T19:59:43.570Z,3.20
2018-11-21T20:02:20.898Z,3.30
2018-11-21T20:05:01.916Z,3.20
2018-11-21T20:07:43.557Z,3.30
2018-11-21T20:10:13.746Z,3.30
2018-11-21T20:15:56.212Z,3.30
2018-11-21T20:18:44.138Z,3.30
2018-11-21T20:21:32.005Z,3.40
2018-11-21T20:27:14.341Z,3.40
2018-11-21T20:38:46.063Z,3.40
2018-11-21T20:44:20.353Z,3.50
2018-11-21T20:47:01.819Z,3.40
2018-11-21T20:49:43.262Z,3.40
2018-11-21T20:52:24.447Z,3.50
2018-11-21T20:55:05.413Z,3.40
2018-11-21T20:57:46.679Z,3.50
2018-11-21T21:00:29.472Z,3.50
2018-11-21T21:03:10.727Z,3.50
2018-11-21T21:05:51.572Z,3.50
2018-11-21T21:08:33.064Z,3.50
2018-11-21T21:11:14.613Z,3.50
2018-11-21T21:13:55.709Z,3.50
2018-11-21T21:16:36.903Z,3.60
2018-11-21T21:19:18.179Z,3.50
2018-11-21T21:21:59.304Z,3.60
2018-11-21T21:24:40.265Z,3.60
2018-11-21T21:27:21.539Z,3.50
2018-11-21T21:30:02.200Z,3.60
2018-11-21T21:32:43.512Z,3.60
2018-11-21T21:35:26.199Z,3.60
2018-11-21T21:38:07.825Z,3.60
2018-11-21T21:40:49.307Z,3.60
2018-11-21T21:43:30.132Z,3.60
2018-11-21T21:46:10.649Z,3.60
2018-11-21T21:48:51.320Z,3.60
2018-11-21T21:51:32.732Z,3.60
2018-11-21T21:54:14.004Z,3.60
2018-11-21T21:56:55.272Z,3.70
2018-11-21T21:59:36.061Z,3.60
2018-11-21T22:02:17.472Z,3.70
2018-11-21T22:04:58.568Z,3.70
2018-11-21T22:07:39.748Z,3.70
2018-11-21T22:10:21.207Z,3.70
2018-11-21T22:13:01.964Z,3.70
2018-11-21T22:15:42.844Z,3.70
2018-11-21T22:18:23.565Z,3.60
2018-11-21T22:21:04.985Z,3.70
2018-11-21T22:23:46.530Z,3.60
2018-11-21T22:26:27.718Z,3.70
2018-11-21T22:29:08.882Z,3.70
2018-11-21T22:31:50.376Z,3.70
2018-11-21T22:34:31.100Z,3.70
2018-11-21T22:37:12.265Z,3.60
2018-11-21T22:39:53.839Z,3.70
2018-11-21T22:42:34.501Z,3.60
2018-11-21T22:45:16.906Z,3.70
2018-11-21T22:47:57.298Z,3.70
2018-11-21T22:50:39.358Z,3.70
2018-11-21T22:53:20.276Z,3.70
2018-11-21T22:58:46.561Z,3.70
2018-11-21T23:01:29.948Z,3.70
2018-11-21T23:04:11.006Z,3.70
2018-11-21T23:06:51.761Z,3.70
2018-11-21T23:09:32.533Z,3.70
2018-11-21T23:12:13.420Z,3.70
2018-11-21T23:14:54.684Z,3.70
2018-11-21T23:17:35.138Z,3.70
2018-11-21T23:20:16.735Z,3.70
2018-11-21T23:22:57.427Z,3.70
2018-11-21T23:25:38.130Z,3.70
2018-11-21T23:28:19.127Z,3.70
2018-11-21T23:31:00.765Z,3.70
2018-11-21T23:33:42.154Z,3.80
2018-11-21T23:36:22.901Z,3.80
2018-11-21T23:39:05.425Z,3.70
2018-11-21T23:41:46.641Z,3.80
2018-11-21T23:44:27.894Z,3.70
2018-11-21T23:47:08.552Z,3.80
2018-11-21T23:49:49.876Z,3.80
2018-11-21T23:52:30.967Z,3.80
2018-11-21T23:55:13.481Z,3.80
2018-11-21T23:57:55.063Z,3.80
